createdAt,value
2019-01-30T00:00:17.113Z,14.90
2019-01-30T00:01:17.090Z,14.10
2019-01-30T00:02:17.067Z,14.50
2019-01-30T00:03:17.040Z,18.00
2019-01-30T00:04:17.013Z,16.30
2019-01-30T00:05:16.990Z,14.50
2019-01-30T00:06:16.974Z,16.20
2019-01-30T00:07:16.940Z,14.60
2019-01-30T00:08:16.923Z,15.90
2019-01-30T00:09:16.895Z,16.50
2019-01-30T00:10:16.874Z,16.60
2019-01-30T00:11:16.848Z,15.80
2019-01-30T00:12:16.821Z,16.20
2019-01-30T00:13:16.811Z,18.30
2019-01-30T00:14:16.772Z,16.50
2019-01-30T00:15:16.743Z,18.00
2019-01-30T00:16:16.716Z,17.00
2019-01-30T00:17:16.701Z,18.50
2019-01-30T00:18:16.667Z,15.80
2019-01-30T00:19:16.648Z,17.60
2019-01-30T00:20:16.619Z,19.40
2019-01-30T00:21:16.591Z,15.30
2019-01-30T00:22:16.566Z,18.40
2019-01-30T00:23:16.542Z,19.20
2019-01-30T00:24:16.518Z,19.40
2019-01-30T00:25:16.496Z,17.60
2019-01-30T00:26:16.479Z,17.80
2019-01-30T00:27:16.444Z,19.70
2019-01-30T00:28:16.417Z,18.10
2019-01-30T00:29:16.395Z,18.20
2019-01-30T00:30:16.371Z,19.80
2019-01-30T00:31:16.362Z,18.20
2019-01-30T00:32:16.321Z,19.40
2019-01-30T00:33:16.290Z,20.30
2019-01-30T00:34:16.270Z,18.90
2019-01-30T00:35:16.413Z,20.90
2019-01-30T00:36:16.220Z,18.30
2019-01-30T00:37:16.193Z,21.10
2019-01-30T00:38:16.168Z,20.80
2019-01-30T00:39:16.150Z,20.70
2019-01-30T00:40:16.119Z,20.70
2019-01-30T00:41:16.093Z,16.50
2019-01-30T00:42:16.121Z,20.40
2019-01-30T00:43:16.043Z,20.80
2019-01-30T00:44:16.056Z,22.00
2019-01-30T00:45:15.992Z,18.70
2019-01-30T00:46:15.970Z,18.30
2019-01-30T00:47:16.218Z,18.30
2019-01-30T00:48:15.919Z,21.10
2019-01-30T00:49:15.934Z,18.30
2019-01-30T00:50:15.869Z,20.90
2019-01-30T00:51:15.846Z,19.70
2019-01-30T00:52:15.819Z,18.50
2019-01-30T00:53:15.793Z,20.00
2019-01-30T00:54:15.768Z,19.60
2019-01-30T00:55:15.749Z,20.70
2019-01-30T00:56:15.721Z,18.40
2019-01-30T00:57:15.693Z,18.90
2019-01-30T00:58:15.671Z,20.60
2019-01-30T00:59:15.644Z,19.70
2019-01-30T01:00:15.624Z,19.40
2019-01-30T01:01:15.594Z,20.60
2019-01-30T01:02:15.571Z,20.90
2019-01-30T01:03:15.545Z,22.10
2019-01-30T01:04:15.522Z,21.30
2019-01-30T01:05:15.502Z,20.90
2019-01-30T01:06:15.468Z,18.70
2019-01-30T01:07:15.446Z,21.10
2019-01-30T01:08:15.425Z,21.10
2019-01-30T01:09:15.398Z,20.10
2019-01-30T01:10:15.370Z,21.80
2019-01-30T01:11:15.345Z,25.30
2019-01-30T01:12:15.323Z,21.20
2019-01-30T01:13:15.303Z,23.00
2019-01-30T01:14:15.268Z,20.60
2019-01-30T01:15:15.243Z,21.00
2019-01-30T01:16:15.221Z,20.50
2019-01-30T01:17:15.199Z,24.50
2019-01-30T01:18:15.168Z,20.30
2019-01-30T01:19:15.146Z,20.10
2019-01-30T01:20:15.122Z,19.20
2019-01-30T01:21:15.098Z,21.90
2019-01-30T01:22:15.068Z,19.90
2019-01-30T01:23:15.045Z,23.70
2019-01-30T01:24:15.020Z,19.40
2019-01-30T01:25:14.994Z,20.50
2019-01-30T01:26:14.966Z,22.90
2019-01-30T01:27:14.942Z,20.10
2019-01-30T01:28:14.917Z,22.90
2019-01-30T01:29:14.891Z,20.50
2019-01-30T01:30:24.571Z,21.80
2019-01-30T01:31:14.845Z,23.30
2019-01-30T01:32:14.822Z,19.00
2019-01-30T01:33:14.801Z,20.20
2019-01-30T01:34:14.766Z,22.40
2019-01-30T01:35:14.742Z,21.50
2019-01-30T01:36:14.719Z,19.90
2019-01-30T01:37:14.696Z,19.90
2019-01-30T01:38:14.669Z,19.90
2019-01-30T01:39:14.647Z,20.70
2019-01-30T01:40:14.627Z,20.80
2019-01-30T01:41:14.617Z,20.70
2019-01-30T01:42:14.568Z,20.70
2019-01-30T01:43:14.547Z,18.80
2019-01-30T01:44:14.525Z,18.30
2019-01-30T01:45:14.492Z,20.30
2019-01-30T01:46:14.469Z,18.90
2019-01-30T01:47:14.449Z,21.20
2019-01-30T01:48:14.427Z,19.60
2019-01-30T01:49:14.394Z,19.60
2019-01-30T01:50:14.373Z,18.20
2019-01-30T01:51:14.344Z,17.50
2019-01-30T01:52:14.319Z,20.50
2019-01-30T01:53:14.300Z,19.20
2019-01-30T01:54:14.268Z,17.10
2019-01-30T01:55:14.250Z,16.80
2019-01-30T01:56:14.217Z,17.90
2019-01-30T01:57:14.191Z,18.60
2019-01-30T01:58:14.170Z,18.20
2019-01-30T01:59:14.144Z,17.90
2019-01-30T02:00:14.120Z,16.90
2019-01-30T02:01:14.094Z,17.80
2019-01-30T02:02:14.068Z,16.40
2019-01-30T02:03:14.045Z,16.80
2019-01-30T02:04:14.019Z,19.10
2019-01-30T02:05:13.997Z,17.30
2019-01-30T02:06:13.970Z,16.70
2019-01-30T02:07:13.945Z,18.30
2019-01-30T02:08:13.920Z,20.60
2019-01-30T02:09:13.893Z,19.00
2019-01-30T02:10:13.869Z,17.90
2019-01-30T02:11:13.842Z,17.40
2019-01-30T02:12:13.817Z,16.90
2019-01-30T02:13:13.793Z,18.70
2019-01-30T02:14:13.767Z,17.50
2019-01-30T02:15:13.743Z,18.20
2019-01-30T02:16:13.723Z,18.30
2019-01-30T02:17:13.693Z,18.30
2019-01-30T02:18:13.675Z,19.10
2019-01-30T02:19:13.647Z,16.40
2019-01-30T02:20:13.623Z,16.20
2019-01-30T02:21:13.594Z,16.40
2019-01-30T02:22:13.569Z,18.20
2019-01-30T02:23:13.543Z,17.70
2019-01-30T02:24:13.520Z,15.40
2019-01-30T02:25:13.493Z,17.90
2019-01-30T02:26:13.468Z,17.90
2019-01-30T02:27:13.443Z,18.00
2019-01-30T02:28:13.420Z,17.00
2019-01-30T02:29:13.394Z,17.70
2019-01-30T02:30:13.380Z,16.00
2019-01-30T02:31:13.345Z,17.00
2019-01-30T02:32:13.321Z,16.90
2019-01-30T02:33:13.368Z,16.20
2019-01-30T02:34:13.270Z,18.10
2019-01-30T02:35:13.245Z,17.90
2019-01-30T02:36:13.233Z,17.50
2019-01-30T02:37:13.203Z,18.00
2019-01-30T02:38:13.170Z,20.30
2019-01-30T02:39:13.151Z,19.90
2019-01-30T02:40:13.118Z,16.50
2019-01-30T02:41:13.093Z,15.70
2019-01-30T02:42:13.080Z,16.70
2019-01-30T02:43:13.047Z,16.90
2019-01-30T02:44:13.020Z,15.90
2019-01-30T02:45:12.994Z,18.00
2019-01-30T02:46:12.968Z,15.80
2019-01-30T02:47:12.942Z,17.90
2019-01-30T02:48:12.919Z,16.40
2019-01-30T02:49:12.893Z,16.60
2019-01-30T02:50:12.885Z,18.80
2019-01-30T02:51:12.843Z,18.60
2019-01-30T02:52:12.816Z,17.70
2019-01-30T02:53:12.794Z,21.40
2019-01-30T02:54:12.770Z,15.30
2019-01-30T02:55:12.749Z,16.70
2019-01-30T02:56:12.717Z,15.80
2019-01-30T02:57:12.691Z,20.30
2019-01-30T02:58:12.670Z,17.10
2019-01-30T02:59:12.658Z,16.20
2019-01-30T03:00:12.634Z,18.50
2019-01-30T03:01:12.594Z,16.90
2019-01-30T03:02:12.570Z,18.40
2019-01-30T03:03:12.541Z,16.70
2019-01-30T03:04:12.516Z,15.50
2019-01-30T03:05:12.491Z,20.70
2019-01-30T03:06:12.475Z,17.40
2019-01-30T03:07:12.445Z,18.70
2019-01-30T03:08:12.415Z,20.00
2019-01-30T03:09:12.389Z,17.40
2019-01-30T03:10:12.367Z,17.30
2019-01-30T03:11:12.340Z,17.90
2019-01-30T03:12:12.316Z,19.00
2019-01-30T03:13:12.290Z,18.80
2019-01-30T03:14:12.266Z,18.10
2019-01-30T03:15:12.240Z,19.20
2019-01-30T03:16:12.216Z,22.90
2019-01-30T03:17:12.191Z,18.20
2019-01-30T03:18:12.167Z,21.60
2019-01-30T03:19:12.141Z,19.80
2019-01-30T03:20:12.117Z,19.20
2019-01-30T03:21:12.090Z,21.00
2019-01-30T03:22:12.067Z,21.10
2019-01-30T03:23:12.043Z,19.20
2019-01-30T03:24:12.026Z,19.20
2019-01-30T03:25:11.989Z,19.10
2019-01-30T03:26:11.968Z,18.90
2019-01-30T03:27:11.945Z,18.00
2019-01-30T03:28:11.912Z,18.70
2019-01-30T03:29:11.887Z,22.40
2019-01-30T03:30:11.866Z,22.50
2019-01-30T03:31:17.732Z,20.30
2019-01-30T03:32:11.817Z,19.80
2019-01-30T03:33:11.787Z,17.70
2019-01-30T03:34:11.763Z,19.90
2019-01-30T03:35:11.745Z,19.30
2019-01-30T03:36:11.711Z,18.80
2019-01-30T03:37:11.686Z,18.50
2019-01-30T03:38:11.660Z,19.40
2019-01-30T03:39:11.636Z,18.70
2019-01-30T03:40:11.611Z,20.80
2019-01-30T03:41:11.586Z,19.70
2019-01-30T03:42:11.562Z,18.70
2019-01-30T03:43:11.544Z,22.30
2019-01-30T03:44:11.515Z,20.40
2019-01-30T03:45:11.485Z,18.00
2019-01-30T03:46:11.463Z,18.60
2019-01-30T03:47:11.435Z,18.70
2019-01-30T03:48:11.410Z,18.70
2019-01-30T03:49:11.388Z,19.00
2019-01-30T03:50:11.361Z,18.50
2019-01-30T03:51:11.346Z,18.00
2019-01-30T03:52:11.311Z,19.80
2019-01-30T03:53:11.282Z,20.30
2019-01-30T03:54:11.260Z,19.00
2019-01-30T03:55:11.232Z,19.30
2019-01-30T03:56:11.211Z,17.00
2019-01-30T03:57:11.181Z,19.10
2019-01-30T03:58:11.201Z,17.80
2019-01-30T03:59:11.132Z,16.50
2019-01-30T04:00:11.108Z,17.70
2019-01-30T04:01:11.081Z,18.90
2019-01-30T04:02:11.056Z,18.70
2019-01-30T04:03:11.031Z,19.10
2019-01-30T04:04:11.007Z,18.40
2019-01-30T04:05:10.981Z,21.20
2019-01-30T04:06:10.961Z,16.50
2019-01-30T04:07:10.930Z,17.70
2019-01-30T04:08:10.905Z,19.40
2019-01-30T04:09:10.882Z,18.90
2019-01-30T04:10:10.856Z,18.20
2019-01-30T04:11:10.829Z,17.90
2019-01-30T04:12:10.811Z,16.30
2019-01-30T04:13:10.783Z,19.10
2019-01-30T04:14:10.754Z,19.00
2019-01-30T04:15:10.726Z,17.00
2019-01-30T04:16:10.712Z,17.50
2019-01-30T04:17:10.677Z,20.40
2019-01-30T04:18:10.653Z,19.10
2019-01-30T04:19:10.630Z,18.20
2019-01-30T04:20:10.601Z,16.40
2019-01-30T04:21:10.580Z,16.10
2019-01-30T04:22:10.551Z,17.80
2019-01-30T04:23:10.526Z,18.30
2019-01-30T04:24:10.504Z,16.30
2019-01-30T04:25:10.476Z,18.10
2019-01-30T04:26:10.458Z,18.70
2019-01-30T04:27:10.427Z,17.70
2019-01-30T04:28:10.401Z,16.90
2019-01-30T04:29:10.375Z,17.70
2019-01-30T04:30:10.347Z,17.90
2019-01-30T04:31:10.324Z,17.30
2019-01-30T04:32:10.303Z,17.10
2019-01-30T04:33:10.272Z,19.80
2019-01-30T04:34:10.250Z,16.20
2019-01-30T04:35:10.228Z,16.70
2019-01-30T04:36:10.199Z,15.50
2019-01-30T04:37:10.173Z,18.60
2019-01-30T04:38:10.149Z,19.80
2019-01-30T04:39:10.122Z,16.90
2019-01-30T04:40:10.103Z,15.10
2019-01-30T04:41:10.091Z,16.90
2019-01-30T04:42:10.049Z,16.20
2019-01-30T04:43:10.021Z,17.00
2019-01-30T04:44:09.998Z,17.10
2019-01-30T04:45:09.973Z,17.10
2019-01-30T04:46:09.946Z,17.50
2019-01-30T04:47:09.937Z,19.60
2019-01-30T04:48:09.897Z,17.20
2019-01-30T04:49:09.870Z,15.20
2019-01-30T04:50:09.853Z,17.80
2019-01-30T04:51:09.823Z,15.60
2019-01-30T04:52:09.797Z,18.80
2019-01-30T04:53:09.769Z,18.40
2019-01-30T04:54:09.749Z,18.60
2019-01-30T04:55:09.721Z,21.10
2019-01-30T04:56:09.698Z,19.00
2019-01-30T04:57:09.673Z,19.10
2019-01-30T04:58:09.646Z,15.80
2019-01-30T04:59:09.626Z,18.20
2019-01-30T05:00:09.599Z,17.80
2019-01-30T05:01:09.574Z,19.00
2019-01-30T05:02:09.546Z,19.20
2019-01-30T05:03:09.521Z,19.20
2019-01-30T05:04:09.495Z,17.20
2019-01-30T05:05:09.467Z,18.00
2019-01-30T05:06:09.442Z,18.90
2019-01-30T05:07:09.420Z,17.60
2019-01-30T05:08:09.462Z,18.00
2019-01-30T05:09:09.366Z,16.40
2019-01-30T05:10:09.339Z,21.00
2019-01-30T05:11:09.317Z,18.00
2019-01-30T05:12:09.295Z,20.10
2019-01-30T05:13:09.265Z,18.00
2019-01-30T05:14:09.239Z,18.70
2019-01-30T05:15:09.215Z,15.50
2019-01-30T05:16:09.196Z,19.40
2019-01-30T05:17:09.163Z,19.00
2019-01-30T05:18:09.138Z,18.70
2019-01-30T05:19:09.117Z,17.50
2019-01-30T05:20:09.723Z,16.20
2019-01-30T05:21:09.067Z,18.20
2019-01-30T05:22:09.044Z,17.40
2019-01-30T05:23:09.011Z,17.30
2019-01-30T05:24:08.992Z,17.50
2019-01-30T05:25:08.961Z,17.90
2019-01-30T05:26:08.941Z,16.80
2019-01-30T05:27:08.909Z,14.90
2019-01-30T05:28:08.885Z,18.60
2019-01-30T05:29:08.863Z,17.80
2019-01-30T05:30:08.835Z,17.20
2019-01-30T05:31:08.807Z,18.70
2019-01-30T05:32:08.782Z,17.20
2019-01-30T05:33:08.759Z,18.90
2019-01-30T05:34:08.733Z,19.80
2019-01-30T05:35:08.710Z,19.80
2019-01-30T05:36:08.685Z,17.40
2019-01-30T05:37:08.655Z,16.10
2019-01-30T05:38:08.632Z,18.40
2019-01-30T05:39:08.605Z,18.50
2019-01-30T05:40:08.582Z,18.00
2019-01-30T05:41:08.556Z,20.90
2019-01-30T05:42:08.532Z,18.50
2019-01-30T05:43:08.506Z,18.90
2019-01-30T05:44:08.485Z,18.00
2019-01-30T05:45:08.456Z,15.90
2019-01-30T05:46:08.431Z,20.10
2019-01-30T05:47:08.404Z,16.30
2019-01-30T05:48:08.380Z,18.20
2019-01-30T05:49:08.357Z,18.80
2019-01-30T05:50:08.326Z,18.50
2019-01-30T05:51:08.302Z,17.80
2019-01-30T05:52:08.276Z,17.20
2019-01-30T05:53:08.260Z,17.90
2019-01-30T05:54:08.226Z,20.80
2019-01-30T05:55:08.200Z,19.90
2019-01-30T05:56:08.174Z,21.40
2019-01-30T05:57:08.150Z,19.20
2019-01-30T05:58:08.139Z,17.50
2019-01-30T05:59:08.109Z,18.90
2019-01-30T06:00:08.075Z,19.40
2019-01-30T06:01:08.048Z,19.70
2019-01-30T06:02:12.185Z,20.00
2019-01-30T06:03:08.010Z,20.80
2019-01-30T06:04:07.974Z,17.00
2019-01-30T06:05:07.947Z,16.90
2019-01-30T06:06:07.924Z,18.20
2019-01-30T06:07:07.899Z,20.50
2019-01-30T06:08:07.871Z,19.20
2019-01-30T06:09:07.846Z,18.10
2019-01-30T06:10:07.819Z,17.50
2019-01-30T06:11:07.800Z,18.20
2019-01-30T06:12:07.770Z,18.20
2019-01-30T06:13:07.750Z,17.70
2019-01-30T06:14:07.716Z,20.10
2019-01-30T06:15:07.695Z,17.80
2019-01-30T06:16:07.672Z,21.00
2019-01-30T06:17:09.609Z,16.70
2019-01-30T06:18:07.617Z,18.00
2019-01-30T06:19:07.595Z,17.40
2019-01-30T06:20:07.567Z,16.00
2019-01-30T06:21:07.552Z,18.20
2019-01-30T06:22:07.523Z,15.70
2019-01-30T06:23:07.515Z,16.80
2019-01-30T06:24:07.474Z,17.30
2019-01-30T06:25:07.453Z,17.60
2019-01-30T06:26:07.417Z,16.90
2019-01-30T06:27:07.400Z,16.70
2019-01-30T06:28:07.373Z,16.60
2019-01-30T06:29:07.344Z,15.20
2019-01-30T06:30:07.322Z,18.80
2019-01-30T06:31:07.291Z,17.90
2019-01-30T06:32:07.267Z,18.00
2019-01-30T06:33:07.240Z,15.40
2019-01-30T06:34:07.217Z,17.50
2019-01-30T06:35:07.197Z,16.80
2019-01-30T06:36:07.166Z,16.10
2019-01-30T06:37:07.139Z,16.30
2019-01-30T06:38:07.112Z,16.80
2019-01-30T06:39:07.090Z,15.90
2019-01-30T06:40:07.066Z,18.20
2019-01-30T06:41:07.035Z,15.00
2019-01-30T06:42:07.011Z,16.50
2019-01-30T06:43:06.995Z,16.70
2019-01-30T06:44:06.963Z,15.20
2019-01-30T06:45:06.944Z,16.40
2019-01-30T06:46:06.916Z,16.20
2019-01-30T06:47:06.883Z,14.60
2019-01-30T06:48:06.877Z,14.80
2019-01-30T06:49:06.839Z,16.80
2019-01-30T06:50:06.808Z,17.30
2019-01-30T06:51:06.779Z,16.00
2019-01-30T06:52:06.758Z,15.70
2019-01-30T06:53:06.730Z,17.50
2019-01-30T06:54:06.704Z,15.60
2019-01-30T06:55:06.686Z,17.00
2019-01-30T06:56:06.662Z,16.50
2019-01-30T06:57:06.629Z,15.90
2019-01-30T06:58:06.606Z,16.10
2019-01-30T06:59:06.575Z,15.00
2019-01-30T07:00:06.554Z,13.40
2019-01-30T07:01:06.526Z,14.50
2019-01-30T07:02:06.501Z,16.30
2019-01-30T07:03:06.480Z,14.10
2019-01-30T07:04:06.449Z,15.80
2019-01-30T07:05:06.427Z,15.20
2019-01-30T07:06:07.911Z,14.90
2019-01-30T07:07:06.382Z,15.20
2019-01-30T07:08:06.349Z,14.40
2019-01-30T07:09:06.324Z,13.00
2019-01-30T07:10:06.299Z,14.80
2019-01-30T07:11:10.798Z,16.10
2019-01-30T07:12:06.248Z,16.30
2019-01-30T07:13:06.226Z,13.40
2019-01-30T07:14:06.204Z,14.90
2019-01-30T07:15:06.174Z,15.50
2019-01-30T07:16:06.148Z,13.60
2019-01-30T07:17:06.121Z,17.70
2019-01-30T07:18:06.094Z,15.00
2019-01-30T07:19:06.075Z,13.80
2019-01-30T07:20:06.049Z,14.20
2019-01-30T07:21:06.028Z,14.00
2019-01-30T07:22:05.997Z,13.90
2019-01-30T07:23:05.970Z,13.50
2019-01-30T07:24:05.945Z,15.50
2019-01-30T07:25:05.919Z,15.10
2019-01-30T07:26:05.892Z,13.80
2019-01-30T07:27:05.867Z,14.10
2019-01-30T07:28:05.852Z,14.40
2019-01-30T07:29:05.816Z,12.90
2019-01-30T07:30:05.790Z,13.40
2019-01-30T07:31:05.771Z,13.10
2019-01-30T07:32:05.742Z,13.90
2019-01-30T07:33:05.717Z,12.90
2019-01-30T07:34:05.693Z,12.90
2019-01-30T07:35:05.666Z,13.50
2019-01-30T07:36:05.645Z,14.30
2019-01-30T07:37:05.612Z,16.40
2019-01-30T07:38:05.592Z,14.30
2019-01-30T07:39:05.563Z,13.00
2019-01-30T07:40:05.544Z,14.90
2019-01-30T07:41:05.519Z,12.80
2019-01-30T07:42:05.487Z,15.00
2019-01-30T07:43:05.463Z,13.80
2019-01-30T07:44:05.445Z,14.30
2019-01-30T07:45:05.420Z,13.70
2019-01-30T07:46:05.391Z,13.80
2019-01-30T07:47:05.379Z,11.90
2019-01-30T07:48:05.339Z,13.80
2019-01-30T07:49:05.312Z,15.70
2019-01-30T07:50:05.285Z,14.30
2019-01-30T07:51:05.263Z,14.00
2019-01-30T07:52:05.240Z,16.00
2019-01-30T07:53:05.211Z,13.90
2019-01-30T07:54:05.184Z,12.50
2019-01-30T07:55:05.168Z,15.80
2019-01-30T07:56:05.151Z,13.40
2019-01-30T07:57:05.115Z,13.70
2019-01-30T07:58:05.892Z,15.60
2019-01-30T07:59:05.059Z,15.00
2019-01-30T08:00:05.037Z,12.40
2019-01-30T08:01:05.024Z,14.40
2019-01-30T08:02:04.989Z,13.30
2019-01-30T08:03:04.966Z,11.80
2019-01-30T08:04:05.038Z,13.90
2019-01-30T08:05:04.923Z,13.80
2019-01-30T08:06:04.898Z,12.40
2019-01-30T08:07:04.877Z,12.90
2019-01-30T08:08:04.844Z,12.70
2019-01-30T08:09:04.821Z,12.60
2019-01-30T08:10:04.794Z,12.70
2019-01-30T08:11:07.334Z,11.90
2019-01-30T08:12:04.739Z,12.40
2019-01-30T08:13:04.716Z,13.90
2019-01-30T08:14:04.695Z,12.80
2019-01-30T08:15:04.665Z,14.20
2019-01-30T08:16:04.641Z,11.30
2019-01-30T08:17:04.616Z,11.20
2019-01-30T08:18:04.596Z,12.20
2019-01-30T08:19:04.566Z,12.00
2019-01-30T08:20:04.548Z,11.20
2019-01-30T08:21:04.526Z,10.40
2019-01-30T08:22:04.497Z,13.00
2019-01-30T08:23:04.523Z,14.40
2019-01-30T08:24:04.976Z,11.10
2019-01-30T08:25:04.501Z,13.00
2019-01-30T08:26:04.407Z,12.70
2019-01-30T08:27:04.536Z,14.50
2019-01-30T08:28:04.612Z,14.40
2019-01-30T08:29:04.694Z,11.20
2019-01-30T08:30:04.492Z,13.20
2019-01-30T08:31:04.312Z,11.50
2019-01-30T08:32:04.440Z,11.10
2019-01-30T08:33:05.875Z,12.40
2019-01-30T08:34:04.224Z,13.70
2019-01-30T08:35:04.200Z,15.40
2019-01-30T08:36:04.177Z,13.90
2019-01-30T08:37:04.147Z,13.90
2019-01-30T08:38:04.123Z,14.50
2019-01-30T08:39:04.100Z,13.10
2019-01-30T08:40:04.076Z,11.60
2019-01-30T08:41:04.055Z,11.50
2019-01-30T08:42:04.030Z,10.70
2019-01-30T08:43:04.011Z,12.20
2019-01-30T08:44:03.987Z,11.40
2019-01-30T08:45:03.957Z,11.80
2019-01-30T08:46:03.936Z,12.70
2019-01-30T08:47:03.914Z,11.30
2019-01-30T08:48:03.891Z,12.10
2019-01-30T08:49:03.867Z,10.80
2019-01-30T08:50:03.850Z,11.10
2019-01-30T08:51:03.820Z,10.50
2019-01-30T08:52:03.795Z,12.40
2019-01-30T08:53:03.772Z,10.50
2019-01-30T08:54:03.750Z,10.90
2019-01-30T08:55:03.723Z,11.90
2019-01-30T08:56:03.702Z,9.70
2019-01-30T08:57:03.674Z,11.30
2019-01-30T08:58:03.652Z,10.90
2019-01-30T08:59:05.812Z,12.00
2019-01-30T09:00:03.610Z,11.90
2019-01-30T09:01:03.584Z,11.30
2019-01-30T09:02:03.569Z,11.00
2019-01-30T09:03:14.182Z,11.30
2019-01-30T09:04:03.514Z,13.60
2019-01-30T09:05:03.488Z,13.10
2019-01-30T09:06:03.462Z,12.30
2019-01-30T09:07:03.438Z,11.10
2019-01-30T09:08:03.445Z,11.00
2019-01-30T09:09:03.398Z,11.60
2019-01-30T09:10:03.374Z,11.70
2019-01-30T09:11:03.342Z,10.30
2019-01-30T09:12:03.325Z,12.10
2019-01-30T09:13:03.297Z,14.30
2019-01-30T09:14:03.304Z,14.70
2019-01-30T09:15:03.245Z,13.10
2019-01-30T09:16:03.220Z,11.30
2019-01-30T09:17:06.800Z,12.50
2019-01-30T09:18:03.175Z,11.80
2019-01-30T09:19:03.151Z,11.90
2019-01-30T09:20:03.132Z,12.90
2019-01-30T09:21:03.101Z,12.70
2019-01-30T09:22:03.090Z,11.40
2019-01-30T09:23:03.059Z,13.40
2019-01-30T09:24:03.031Z,12.70
2019-01-30T09:25:03.011Z,12.90
2019-01-30T09:26:02.992Z,12.70
2019-01-30T09:27:02.964Z,14.40
2019-01-30T09:28:02.941Z,11.20
2019-01-30T09:29:02.917Z,12.00
2019-01-30T09:30:02.889Z,11.40
2019-01-30T09:31:02.870Z,13.20
2019-01-30T09:32:02.856Z,10.60
2019-01-30T09:33:02.822Z,12.30
2019-01-30T09:34:02.800Z,12.80
2019-01-30T09:35:02.781Z,13.00
2019-01-30T09:36:02.750Z,11.20
2019-01-30T09:37:02.726Z,10.80
2019-01-30T09:38:02.713Z,13.80
2019-01-30T09:39:02.683Z,11.10
2019-01-30T09:40:02.656Z,11.40
2019-01-30T09:41:02.651Z,10.90
2019-01-30T09:42:02.612Z,10.70
2019-01-30T09:43:02.590Z,11.20
2019-01-30T09:44:02.600Z,11.30
2019-01-30T09:45:02.544Z,11.90
2019-01-30T09:46:02.517Z,15.10
2019-01-30T09:47:02.499Z,10.90
2019-01-30T09:48:02.499Z,16.90
2019-01-30T09:49:02.445Z,14.70
2019-01-30T09:50:02.426Z,14.40
2019-01-30T09:51:02.399Z,15.50
2019-01-30T09:52:02.373Z,17.00
2019-01-30T09:53:02.356Z,16.50
2019-01-30T09:54:02.340Z,14.00
2019-01-30T09:55:02.303Z,15.30
2019-01-30T09:56:02.279Z,17.90
2019-01-30T09:57:02.262Z,18.60
2019-01-30T09:58:02.229Z,15.20
2019-01-30T09:59:02.207Z,14.80
2019-01-30T10:00:02.185Z,15.70
2019-01-30T10:01:02.162Z,14.10
2019-01-30T10:02:02.139Z,14.40
2019-01-30T10:03:02.127Z,12.10
2019-01-30T10:04:02.097Z,14.20
2019-01-30T10:05:02.074Z,14.40
2019-01-30T10:06:02.047Z,14.10
2019-01-30T10:07:02.017Z,13.50
2019-01-30T10:08:01.995Z,10.80
2019-01-30T10:09:01.975Z,10.60
2019-01-30T10:10:01.964Z,10.50
2019-01-30T10:11:01.927Z,10.70
2019-01-30T10:12:01.901Z,10.90
2019-01-30T10:13:01.885Z,10.80
2019-01-30T10:14:01.852Z,11.30
2019-01-30T10:15:01.844Z,10.70
2019-01-30T10:16:01.810Z,11.40
2019-01-30T10:17:01.782Z,10.60
2019-01-30T10:18:01.758Z,11.20
2019-01-30T10:19:01.741Z,11.80
2019-01-30T10:20:01.720Z,12.20
2019-01-30T10:21:01.685Z,11.50
2019-01-30T10:22:01.664Z,11.60
2019-01-30T10:23:01.650Z,11.40
2019-01-30T10:24:01.620Z,12.00
2019-01-30T10:25:01.629Z,12.00
2019-01-30T10:26:01.568Z,12.70
2019-01-30T10:27:01.544Z,11.10
2019-01-30T10:28:01.561Z,11.00
2019-01-30T10:29:01.508Z,13.50
2019-01-30T10:30:01.473Z,9.40
2019-01-30T10:31:01.452Z,11.80
2019-01-30T10:32:01.432Z,11.70
2019-01-30T10:33:01.402Z,11.50
2019-01-30T10:34:01.383Z,14.00
2019-01-30T10:35:01.354Z,12.40
2019-01-30T10:36:01.344Z,13.10
2019-01-30T10:37:03.620Z,11.90
2019-01-30T10:38:01.290Z,14.40
2019-01-30T10:39:01.259Z,12.60
2019-01-30T10:40:01.239Z,12.90
2019-01-30T10:41:01.210Z,11.50
2019-01-30T10:42:01.204Z,14.40
2019-01-30T10:43:01.168Z,12.50
2019-01-30T10:44:01.144Z,18.50
2019-01-30T10:45:01.113Z,18.00
2019-01-30T10:46:01.097Z,18.60
2019-01-30T10:47:01.068Z,23.20
2019-01-30T10:48:01.052Z,13.50
2019-01-30T10:49:01.018Z,13.40
2019-01-30T10:50:01.005Z,12.30
2019-01-30T10:51:00.971Z,12.40
2019-01-30T10:52:00.950Z,12.70
2019-01-30T10:53:00.926Z,12.00
2019-01-30T10:54:00.903Z,13.10
2019-01-30T10:55:00.884Z,11.70
2019-01-30T10:56:00.859Z,13.70
2019-01-30T10:57:00.938Z,12.70
2019-01-30T10:58:00.809Z,12.40
2019-01-30T10:59:00.786Z,12.90
2019-01-30T11:00:00.764Z,14.10
2019-01-30T11:01:00.733Z,14.70
2019-01-30T11:02:00.710Z,13.10
2019-01-30T11:03:00.690Z,12.20
2019-01-30T11:04:00.661Z,13.00
2019-01-30T11:05:00.642Z,13.30
2019-01-30T11:06:00.626Z,11.60
2019-01-30T11:07:00.595Z,15.10
2019-01-30T11:08:00.567Z,14.90
2019-01-30T11:09:00.542Z,14.80
2019-01-30T11:10:00.527Z,14.90
2019-01-30T11:11:07.479Z,15.30
2019-01-30T11:12:00.469Z,15.70
2019-01-30T11:13:00.454Z,15.80
2019-01-30T11:14:00.423Z,14.60
2019-01-30T11:15:02.898Z,16.30
2019-01-30T11:16:01.230Z,13.80
2019-01-30T11:17:00.350Z,17.70
2019-01-30T11:18:00.326Z,16.80
2019-01-30T11:19:00.314Z,16.80
2019-01-30T11:20:00.278Z,16.50
2019-01-30T11:21:00.266Z,16.50
2019-01-30T11:22:00.235Z,18.40
2019-01-30T11:23:00.211Z,17.40
2019-01-30T11:24:00.195Z,16.10
2019-01-30T11:25:00.397Z,16.10
2019-01-30T11:26:00.149Z,16.90
2019-01-30T11:27:00.110Z,19.00
2019-01-30T11:28:00.086Z,17.60
2019-01-30T11:29:00.069Z,18.70
2019-01-30T11:30:00.040Z,19.30
2019-01-30T11:31:00.023Z,16.90
2019-01-30T11:31:59.989Z,16.70
2019-01-30T11:32:59.964Z,18.20
2019-01-30T11:34:07.382Z,15.30
2019-01-30T11:34:59.916Z,18.30
2019-01-30T11:35:59.895Z,23.70
2019-01-30T11:37:00.221Z,18.30
2019-01-30T11:37:59.844Z,23.80
2019-01-30T11:38:59.816Z,18.20
2019-01-30T11:39:59.791Z,17.30
2019-01-30T11:40:59.775Z,17.90
2019-01-30T11:41:59.748Z,15.10
2019-01-30T11:42:59.716Z,16.20
2019-01-30T11:43:59.694Z,17.30
2019-01-30T11:44:59.668Z,20.00
2019-01-30T11:45:59.646Z,19.80
2019-01-30T11:46:59.628Z,18.80
2019-01-30T11:47:59.602Z,19.50
2019-01-30T11:48:59.574Z,17.70
2019-01-30T11:49:59.552Z,16.20
2019-01-30T11:50:59.521Z,17.10
2019-01-30T11:51:59.498Z,20.00
2019-01-30T11:52:59.472Z,16.90
2019-01-30T11:53:59.450Z,16.50
2019-01-30T11:54:59.432Z,17.60
2019-01-30T11:55:59.406Z,15.70
2019-01-30T11:56:59.377Z,16.60
2019-01-30T11:57:59.371Z,15.50
2019-01-30T11:58:59.331Z,16.90
2019-01-30T11:59:59.308Z,17.10
2019-01-30T12:00:59.282Z,19.10
2019-01-30T12:01:59.265Z,18.40
2019-01-30T12:02:59.236Z,17.30
2019-01-30T12:03:59.209Z,18.80
2019-01-30T12:04:59.182Z,15.40
2019-01-30T12:05:59.163Z,16.40
2019-01-30T12:06:59.146Z,19.20
2019-01-30T12:07:59.120Z,17.50
2019-01-30T12:08:59.091Z,17.50
2019-01-30T12:09:59.064Z,18.90
2019-01-30T12:10:59.045Z,16.50
2019-01-30T12:11:59.024Z,16.60
2019-01-30T12:12:58.998Z,15.60
2019-01-30T12:13:58.967Z,17.20
2019-01-30T12:14:58.951Z,15.40
2019-01-30T12:15:58.926Z,14.90
2019-01-30T12:16:58.894Z,16.40
2019-01-30T12:17:58.871Z,19.00
2019-01-30T12:18:58.849Z,15.90
2019-01-30T12:19:58.833Z,15.80
2019-01-30T12:20:58.807Z,15.30
2019-01-30T12:21:58.781Z,16.60
2019-01-30T12:22:58.758Z,17.50
2019-01-30T12:23:58.728Z,15.50
2019-01-30T12:24:58.708Z,15.80
2019-01-30T12:25:58.680Z,17.30
2019-01-30T12:26:58.673Z,17.30
2019-01-30T12:27:58.642Z,16.60
2019-01-30T12:28:58.612Z,21.20
2019-01-30T12:29:58.588Z,17.10
2019-01-30T12:30:58.564Z,18.50
2019-01-30T12:31:58.539Z,16.30
2019-01-30T12:32:58.515Z,15.50
2019-01-30T12:33:59.174Z,17.20
2019-01-30T12:34:58.465Z,16.90
2019-01-30T12:35:58.443Z,17.60
2019-01-30T12:36:58.423Z,15.60
2019-01-30T12:37:58.395Z,18.00
2019-01-30T12:38:58.369Z,17.50
2019-01-30T12:39:58.346Z,15.70
2019-01-30T12:40:58.321Z,15.00
2019-01-30T12:41:58.300Z,16.10
2019-01-30T12:42:58.274Z,16.60
2019-01-30T12:43:58.258Z,18.20
2019-01-30T12:44:58.224Z,17.20
2019-01-30T12:45:58.200Z,17.40
2019-01-30T12:46:58.177Z,14.40
2019-01-30T12:47:58.152Z,15.00
2019-01-30T12:48:58.130Z,14.20
2019-01-30T12:49:58.104Z,15.20
2019-01-30T12:50:58.080Z,17.30
2019-01-30T12:51:58.055Z,16.50